createdAt,value
2023-04-04T00:00:17.591Z,1.20
2023-04-04T00:05:44.578Z,1.12
2023-04-04T00:10:36.939Z,1.02
2023-04-04T00:15:36.884Z,0.94
2023-04-04T00:20:36.833Z,0.80
2023-04-04T00:25:36.768Z,0.73
2023-04-04T00:30:36.697Z,0.62
2023-04-04T00:35:36.638Z,0.59
2023-04-04T00:40:36.601Z,0.59
2023-04-04T00:45:36.557Z,0.60
2023-04-04T00:50:36.446Z,0.59
2023-04-04T00:55:36.372Z,0.63
2023-04-04T01:00:36.295Z,0.56
2023-04-04T01:05:36.276Z,0.43
2023-04-04T01:10:36.170Z,0.56
2023-04-04T01:15:36.106Z,0.58
2023-04-04T01:20:36.036Z,0.65
2023-04-04T01:25:35.994Z,0.76
2023-04-04T01:30:35.943Z,0.80
2023-04-04T01:35:35.895Z,0.87
2023-04-04T01:40:35.800Z,0.84
2023-04-04T01:45:35.734Z,0.88
2023-04-04T01:50:35.662Z,0.95
2023-04-04T01:55:35.607Z,1.04
2023-04-04T02:00:35.521Z,1.10
2023-04-04T02:05:35.487Z,1.13
2023-04-04T02:10:35.419Z,1.08
2023-04-04T02:15:35.395Z,1.02
2023-04-04T02:20:35.268Z,0.98
2023-04-04T02:25:35.229Z,0.98
2023-04-04T02:30:35.194Z,0.96
2023-04-04T02:35:35.131Z,0.91
2023-04-04T02:40:35.000Z,0.87
2023-04-04T02:45:34.956Z,0.84
2023-04-04T02:50:34.901Z,0.80
2023-04-04T02:55:34.843Z,0.76
2023-04-04T03:00:34.732Z,0.68
2023-04-04T03:05:34.709Z,0.65
2023-04-04T03:10:34.645Z,0.69
2023-04-04T03:15:34.593Z,0.65
2023-04-04T03:20:34.522Z,0.62
2023-04-04T03:25:34.446Z,0.60
2023-04-04T03:30:34.373Z,0.58
2023-04-04T03:35:34.332Z,0.65
2023-04-04T03:40:34.261Z,0.69
2023-04-04T03:45:34.164Z,0.66
2023-04-04T03:50:34.117Z,0.66
2023-04-04T03:55:34.058Z,0.63
2023-04-04T04:00:33.987Z,0.59
2023-04-04T04:05:33.929Z,0.56
2023-04-04T04:10:33.865Z,0.56
2023-04-04T04:15:48.317Z,0.50
2023-04-04T04:20:40.728Z,0.49
2023-04-04T04:25:40.541Z,0.44
2023-04-04T04:30:40.767Z,0.41
2023-04-04T04:35:40.428Z,0.47
2023-04-04T04:40:40.524Z,0.46
2023-04-04T04:45:40.270Z,0.44
2023-04-04T04:50:40.320Z,0.44
2023-04-04T04:55:40.130Z,0.44
2023-04-04T05:00:40.243Z,0.49
2023-04-04T05:05:40.020Z,0.50
2023-04-04T05:10:40.114Z,0.50
2023-04-04T05:15:40.688Z,0.59
2023-04-04T05:20:39.922Z,0.62
2023-04-04T05:25:39.762Z,0.74
2023-04-04T05:30:39.853Z,0.78
2023-04-04T05:35:39.673Z,0.69
2023-04-04T05:40:39.687Z,0.55
2023-04-04T05:45:40.710Z,0.40
2023-04-04T05:50:40.432Z,0.34
2023-04-04T05:55:39.399Z,0.41
2023-04-04T06:00:39.563Z,0.60
2023-04-04T06:05:39.264Z,0.74
2023-04-04T06:10:39.289Z,0.80
2023-04-04T06:15:39.116Z,0.99
2023-04-04T06:20:39.224Z,1.10
2023-04-04T06:25:38.988Z,1.24
2023-04-04T06:30:39.060Z,1.37
2023-04-04T06:35:38.843Z,1.55
2023-04-04T06:40:39.001Z,1.76
2023-04-04T06:45:39.115Z,2.22
2023-04-04T06:50:38.915Z,3.45
2023-04-04T06:55:38.589Z,5.38
2023-04-04T07:00:38.900Z,7.00
2023-04-04T07:05:38.441Z,7.97
2023-04-04T07:10:39.786Z,8.61
2023-04-04T07:15:38.363Z,8.60
2023-04-04T07:20:38.451Z,9.10
2023-04-04T07:25:38.240Z,9.76
2023-04-04T07:30:38.381Z,9.79
2023-04-04T07:35:38.142Z,10.71
2023-04-04T07:40:38.462Z,11.11
2023-04-04T07:45:37.970Z,11.32
2023-04-04T07:50:38.122Z,11.10
2023-04-04T07:55:37.800Z,11.91
2023-04-04T08:00:37.964Z,12.45
2023-04-04T08:05:37.644Z,12.98
2023-04-04T08:10:37.902Z,13.60
2023-04-04T08:15:37.573Z,14.18
2023-04-04T08:20:37.609Z,14.37
2023-04-04T08:25:37.371Z,14.65
2023-04-04T08:30:37.520Z,14.29
2023-04-04T08:35:37.293Z,14.17
2023-04-04T08:40:37.380Z,15.25
2023-04-04T08:45:37.125Z,15.64
2023-04-04T08:50:37.197Z,14.69
2023-04-04T08:55:36.992Z,14.05
2023-04-04T09:00:36.971Z,15.18
2023-04-04T09:05:36.986Z,16.68
2023-04-04T09:10:36.787Z,17.11
2023-04-04T09:15:36.766Z,16.64
2023-04-04T09:20:36.733Z,16.10
2023-04-04T09:25:36.620Z,16.02
2023-04-04T09:30:36.566Z,17.22
2023-04-04T09:35:36.502Z,17.87
2023-04-04T09:40:36.419Z,17.87
2023-04-04T09:45:36.368Z,17.72
2023-04-04T09:50:36.268Z,17.05
2023-04-04T09:55:36.265Z,18.43
2023-04-04T10:00:36.244Z,18.78
2023-04-04T10:05:36.122Z,18.47
2023-04-04T10:10:36.035Z,17.95
2023-04-04T10:15:36.119Z,18.45
2023-04-04T10:20:35.859Z,18.44
2023-04-04T10:25:35.823Z,18.45
2023-04-04T10:30:35.741Z,18.13
2023-04-04T10:35:35.739Z,18.83
2023-04-04T10:40:35.575Z,18.59
2023-04-04T10:45:35.528Z,19.55
2023-04-04T10:50:35.468Z,18.99
2023-04-04T10:55:35.379Z,18.78
2023-04-04T11:00:36.299Z,18.99
2023-04-04T11:05:35.292Z,19.33
2023-04-04T11:10:35.336Z,18.86
2023-04-04T11:15:35.132Z,19.29
2023-04-04T11:20:35.045Z,19.26
2023-04-04T11:25:35.034Z,19.04
2023-04-04T11:30:34.913Z,18.92
2023-04-04T11:35:34.902Z,18.96
2023-04-04T11:40:34.821Z,18.10
2023-04-04T11:45:34.737Z,18.35
2023-04-04T11:50:34.681Z,18.92
2023-04-04T11:55:34.613Z,18.00
2023-04-04T12:00:34.532Z,17.83
2023-04-04T12:05:34.487Z,18.41
2023-04-04T12:10:34.384Z,18.28
2023-04-04T12:15:34.351Z,18.03
2023-04-04T12:20:34.281Z,16.93
2023-04-04T12:25:34.327Z,15.61
2023-04-04T12:30:34.134Z,16.29
2023-04-04T12:35:34.091Z,16.94
2023-04-04T12:40:34.010Z,16.50
2023-04-04T12:45:33.974Z,15.77
2023-04-04T12:50:33.880Z,14.94
2023-04-04T12:55:33.836Z,15.27
2023-04-04T13:00:33.731Z,15.40
2023-04-04T13:05:33.665Z,14.43
2023-04-04T13:10:33.615Z,14.28
2023-04-04T13:15:33.541Z,14.77
2023-04-04T13:20:33.493Z,15.17
2023-04-04T13:25:33.412Z,14.84
2023-04-04T13:30:33.393Z,13.79
2023-04-04T13:35:33.274Z,13.28
2023-04-04T13:40:33.188Z,12.36
2023-04-04T13:45:33.152Z,12.42
2023-04-04T13:50:33.066Z,12.68
2023-04-04T13:55:33.024Z,12.90
2023-04-04T14:00:32.923Z,13.00
2023-04-04T14:05:32.890Z,12.75
2023-04-04T14:10:32.834Z,12.54
2023-04-04T14:15:32.832Z,12.83
2023-04-04T14:20:34.701Z,12.78
2023-04-04T14:25:32.620Z,12.62
2023-04-04T14:30:32.533Z,12.55
2023-04-04T14:35:32.475Z,12.09
2023-04-04T14:40:32.423Z,12.15
2023-04-04T14:45:32.443Z,12.46
2023-04-04T14:50:32.293Z,12.65
2023-04-04T14:55:32.217Z,12.50
2023-04-04T15:00:32.114Z,12.35
2023-04-04T15:05:32.098Z,12.31
2023-04-04T15:10:32.044Z,11.90
2023-04-04T15:15:31.921Z,12.00
2023-04-04T15:20:31.864Z,12.37
2023-04-04T15:25:31.814Z,12.36
2023-04-04T15:30:31.722Z,12.17
2023-04-04T15:35:31.697Z,12.10
2023-04-04T15:40:31.653Z,12.10
2023-04-04T15:45:31.531Z,11.97
2023-04-04T15:50:31.458Z,11.87
2023-04-04T15:55:31.438Z,11.86
2023-04-04T16:00:31.318Z,11.69
2023-04-04T16:05:31.291Z,11.68
2023-04-04T16:10:31.209Z,11.37
2023-04-04T16:15:31.169Z,11.14
2023-04-04T16:20:31.079Z,11.07
2023-04-04T16:25:31.038Z,11.11
2023-04-04T16:30:30.960Z,11.00
2023-04-04T16:35:30.870Z,10.81
2023-04-04T16:40:30.826Z,10.64
2023-04-04T16:45:30.733Z,10.60
2023-04-04T16:50:30.727Z,10.56
2023-04-04T16:55:30.609Z,10.41
2023-04-04T17:00:32.979Z,10.41
2023-04-04T17:05:30.469Z,10.28
2023-04-04T17:10:30.409Z,10.20
2023-04-04T17:15:30.340Z,10.02
2023-04-04T17:20:31.484Z,9.79
2023-04-04T17:25:30.193Z,9.62
2023-04-04T17:30:30.168Z,9.51
2023-04-04T17:35:30.069Z,9.41
2023-04-04T17:40:30.067Z,9.32
2023-04-04T17:45:29.940Z,9.22
2023-04-04T17:50:29.899Z,9.06
2023-04-04T17:55:29.836Z,8.85
2023-04-04T18:00:29.797Z,8.74
2023-04-04T18:05:29.746Z,8.48
2023-04-04T18:10:29.658Z,8.20
2023-04-04T18:15:30.589Z,8.01
2023-04-04T18:20:42.533Z,7.70
2023-04-04T18:25:30.410Z,7.35
2023-04-04T18:30:29.387Z,7.10
2023-04-04T18:35:29.299Z,6.82
2023-04-04T18:40:29.652Z,6.46
2023-04-04T18:45:39.294Z,6.30
2023-04-04T18:50:30.110Z,6.26
2023-04-04T18:55:29.990Z,6.14
2023-04-04T19:00:29.019Z,6.02
2023-04-04T19:05:28.922Z,5.86
2023-04-04T19:10:28.852Z,5.73
2023-04-04T19:15:28.772Z,5.66
2023-04-04T19:20:28.712Z,5.59
2023-04-04T19:25:28.632Z,5.56
2023-04-04T19:30:28.607Z,5.57
2023-04-04T19:35:28.539Z,5.51
2023-04-04T19:40:29.404Z,5.43
2023-04-04T19:45:28.390Z,5.30
2023-04-04T19:50:28.379Z,5.18
2023-04-04T19:55:28.282Z,5.02
2023-04-04T20:00:28.205Z,4.94
2023-04-04T20:05:28.430Z,4.92
2023-04-04T20:10:28.067Z,4.93
2023-04-04T20:15:27.994Z,4.84
2023-04-04T20:20:27.965Z,4.86
2023-04-04T20:25:28.798Z,4.90
2023-04-04T20:30:27.812Z,4.87
2023-04-04T20:35:27.774Z,4.71
2023-04-04T20:40:27.781Z,4.59
2023-04-04T20:45:28.562Z,4.52
2023-04-04T20:50:27.576Z,4.45
2023-04-04T20:55:27.456Z,4.41
2023-04-04T21:00:27.447Z,4.40
2023-04-04T21:05:27.366Z,4.38
2023-04-04T21:10:27.308Z,4.37
2023-04-04T21:15:27.205Z,4.42
2023-04-04T21:20:27.138Z,4.52
2023-04-04T21:25:27.077Z,4.56
2023-04-04T21:30:27.021Z,4.66
2023-04-04T21:35:26.970Z,4.71
2023-04-04T21:40:26.913Z,4.78
2023-04-04T21:45:26.837Z,4.89
2023-04-04T21:50:26.756Z,5.02
2023-04-04T21:55:26.702Z,5.10
2023-04-04T22:00:26.625Z,5.15
2023-04-04T22:05:38.133Z,5.25
2023-04-04T22:10:27.489Z,5.28
2023-04-04T22:15:26.432Z,5.25
2023-04-04T22:20:26.390Z,5.28
2023-04-04T22:25:26.322Z,5.32
2023-04-04T22:30:26.291Z,5.32
2023-04-04T22:35:26.155Z,5.30
2023-04-04T22:40:26.129Z,5.17
2023-04-04T22:45:26.062Z,5.10
2023-04-04T22:50:25.995Z,5.08
2023-04-04T22:55:25.929Z,5.08
2023-04-04T23:00:25.874Z,5.05
2023-04-04T23:05:25.777Z,4.96
2023-04-04T23:10:25.733Z,4.66
2023-04-04T23:15:25.655Z,4.38
2023-04-04T23:20:25.645Z,4.19
2023-04-04T23:25:25.518Z,3.99
2023-04-04T23:30:25.487Z,3.95
2023-04-04T23:35:25.438Z,3.84
2023-04-04T23:40:25.352Z,3.48
2023-04-04T23:45:25.282Z,3.14
2023-04-04T23:50:25.246Z,3.01
2023-04-04T23:55:25.124Z,2.98
